sensor_id;sensor_type;location;lat;lon;timestamp;temperature;humidity
45008;DHT22;30743;52.008;5.644;2023-07-02T00:00:26;21.90;99.90
45008;DHT22;30743;52.008;5.644;2023-07-02T00:02:51;21.80;99.90
45008;DHT22;30743;52.008;5.644;2023-07-02T00:05:17;21.60;99.90
45008;DHT22;30743;52.008;5.644;2023-07-02T00:07:43;21.50;99.90
45008;DHT22;30743;52.008;5.644;2023-07-02T00:10:09;21.50;99.90
45008;DHT22;30743;52.008;5.644;2023-07-02T00:12:36;21.50;99.90
45008;DHT22;30743;52.008;5.644;2023-07-02T00:15:02;21.40;99.90
45008;DHT22;30743;52.008;5.644;2023-07-02T00:17:27;21.50;99.90
45008;DHT22;30743;52.008;5.644;2023-07-02T00:19:53;21.70;99.90
45008;DHT22;30743;52.008;5.644;2023-07-02T00:22:18;21.80;99.90
45008;DHT22;30743;52.008;5.644;2023-07-02T00:24:44;21.90;99.90
45008;DHT22;30743;52.008;5.644;2023-07-02T00:27:10;22.00;99.90
45008;DHT22;30743;52.008;5.644;2023-07-02T00:29:35;22.20;99.90
45008;DHT22;30743;52.008;5.644;2023-07-02T00:32:01;22.40;99.90
45008;DHT22;30743;52.008;5.644;2023-07-02T00:34:26;22.40;99.90
45008;DHT22;30743;52.008;5.644;2023-07-02T00:36:52;22.40;99.90
45008;DHT22;30743;52.008;5.644;2023-07-02T00:39:18;22.40;99.90
45008;DHT22;30743;52.008;5.644;2023-07-02T00:41:44;22.40;99.90
45008;DHT22;30743;52.008;5.644;2023-07-02T00:44:12;22.40;99.90
45008;DHT22;30743;52.008;5.644;2023-07-02T00:46:37;22.20;99.90
45008;DHT22;30743;52.008;5.644;2023-07-02T00:49:04;22.20;99.90
45008;DHT22;30743;52.008;5.644;2023-07-02T00:51:30;22.10;99.90
45008;DHT22;30743;52.008;5.644;2023-07-02T00:53:58;22.00;99.90
45008;DHT22;30743;52.008;5.644;2023-07-02T00:56:25;21.90;99.90
45008;DHT22;30743;52.008;5.644;2023-07-02T00:58:53;21.80;99.90
45008;DHT22;30743;52.008;5.644;2023-07-02T01:01:21;21.80;99.90
45008;DHT22;30743;52.008;5.644;2023-07-02T01:06:35;21.80;99.90
45008;DHT22;30743;52.008;5.644;2023-07-02T01:09:03;21.90;99.90
45008;DHT22;30743;52.008;5.644;2023-07-02T01:11:38;21.80;99.90
45008;DHT22;30743;52.008;5.644;2023-07-02T01:14:08;21.80;99.90
45008;DHT22;30743;52.008;5.644;2023-07-02T01:16:37;21.80;99.90
45008;DHT22;30743;52.008;5.644;2023-07-02T01:19:09;21.80;99.90
45008;DHT22;30743;52.008;5.644;2023-07-02T01:21:36;21.80;99.90
45008;DHT22;30743;52.008;5.644;2023-07-02T01:24:03;21.80;99.90
45008;DHT22;30743;52.008;5.644;2023-07-02T01:26:30;21.80;99.90
45008;DHT22;30743;52.008;5.644;2023-07-02T01:28:59;21.80;99.90
45008;DHT22;30743;52.008;5.644;2023-07-02T01:31:24;21.70;99.90
45008;DHT22;30743;52.008;5.644;2023-07-02T01:33:51;21.70;99.90
45008;DHT22;30743;52.008;5.644;2023-07-02T01:36:16;21.60;99.90
45008;DHT22;30743;52.008;5.644;2023-07-02T01:38:42;21.50;99.90
45008;DHT22;30743;52.008;5.644;2023-07-02T01:41:07;21.50;99.90
45008;DHT22;30743;52.008;5.644;2023-07-02T01:43:33;21.50;99.90
45008;DHT22;30743;52.008;5.644;2023-07-02T01:45:58;21.50;99.90
45008;DHT22;30743;52.008;5.644;2023-07-02T01:48:25;21.50;99.90
45008;DHT22;30743;52.008;5.644;2023-07-02T01:50:50;21.50;99.90
45008;DHT22;30743;52.008;5.644;2023-07-02T01:53:16;21.50;99.90
45008;DHT22;30743;52.008;5.644;2023-07-02T01:55:41;21.50;99.90
45008;DHT22;30743;52.008;5.644;2023-07-02T01:58:07;21.40;99.90
45008;DHT22;30743;52.008;5.644;2023-07-02T02:00:32;21.40;99.90
45008;DHT22;30743;52.008;5.644;2023-07-02T02:02:58;21.50;99.90
45008;DHT22;30743;52.008;5.644;2023-07-02T02:05:23;21.40;99.90
45008;DHT22;30743;52.008;5.644;2023-07-02T02:07:49;21.40;99.90
45008;DHT22;30743;52.008;5.644;2023-07-02T02:10:14;21.40;99.90
45008;DHT22;30743;52.008;5.644;2023-07-02T02:12:40;21.40;99.90
45008;DHT22;30743;52.008;5.644;2023-07-02T02:15:06;21.30;99.90
45008;DHT22;30743;52.008;5.644;2023-07-02T02:17:32;21.20;99.90
45008;DHT22;30743;52.008;5.644;2023-07-02T02:19:57;21.00;99.90
45008;DHT22;30743;52.008;5.644;2023-07-02T02:22:23;20.90;99.90
45008;DHT22;30743;52.008;5.644;2023-07-02T02:24:48;20.90;99.90
45008;DHT22;30743;52.008;5.644;2023-07-02T02:27:14;20.70;99.90
45008;DHT22;30743;52.008;5.644;2023-07-02T02:29:39;20.70;99.90
45008;DHT22;30743;52.008;5.644;2023-07-02T02:32:05;20.80;99.90
45008;DHT22;30743;52.008;5.644;2023-07-02T02:34:31;20.80;99.90
45008;DHT22;30743;52.008;5.644;2023-07-02T02:36:56;20.90;99.90
45008;DHT22;30743;52.008;5.644;2023-07-02T02:39:22;20.90;99.90
45008;DHT22;30743;52.008;5.644;2023-07-02T02:41:47;20.90;99.90
45008;DHT22;30743;52.008;5.644;2023-07-02T02:44:13;20.90;99.90
45008;DHT22;30743;52.008;5.644;2023-07-02T02:46:38;21.00;99.90
45008;DHT22;30743;52.008;5.644;2023-07-02T02:49:04;20.90;99.90
45008;DHT22;30743;52.008;5.644;2023-07-02T02:51:29;21.00;99.90
45008;DHT22;30743;52.008;5.644;2023-07-02T02:53:55;21.00;99.90
45008;DHT22;30743;52.008;5.644;2023-07-02T02:56:20;21.00;99.90
45008;DHT22;30743;52.008;5.644;2023-07-02T02:58:46;20.90;99.90
45008;DHT22;30743;52.008;5.644;2023-07-02T03:01:11;20.90;99.90
45008;DHT22;30743;52.008;5.644;2023-07-02T03:03:38;20.90;99.90
45008;DHT22;30743;52.008;5.644;2023-07-02T03:06:05;20.90;99.90
45008;DHT22;30743;52.008;5.644;2023-07-02T03:08:31;20.90;99.90
45008;DHT22;30743;52.008;5.644;2023-07-02T03:10:56;20.90;99.90
45008;DHT22;30743;52.008;5.644;2023-07-02T03:13:22;20.90;99.90
45008;DHT22;30743;52.008;5.644;2023-07-02T03:15:47;20.90;99.90
45008;DHT22;30743;52.008;5.644;2023-07-02T03:18:13;20.70;99.90
45008;DHT22;30743;52.008;5.644;2023-07-02T03:20:38;20.60;99.90
45008;DHT22;30743;52.008;5.644;2023-07-02T03:23:04;20.50;99.90
45008;DHT22;30743;52.008;5.644;2023-07-02T03:25:29;20.50;99.90
45008;DHT22;30743;52.008;5.644;2023-07-02T03:27:55;20.40;99.90
45008;DHT22;30743;52.008;5.644;2023-07-02T03:30:20;20.50;99.90
45008;DHT22;30743;52.008;5.644;2023-07-02T03:32:46;20.60;99.90
45008;DHT22;30743;52.008;5.644;2023-07-02T03:35:11;20.50;99.90
45008;DHT22;30743;52.008;5.644;2023-07-02T03:37:37;20.50;99.90
45008;DHT22;30743;52.008;5.644;2023-07-02T03:40:03;20.60;99.90
45008;DHT22;30743;52.008;5.644;2023-07-02T03:42:29;20.50;99.90
45008;DHT22;30743;52.008;5.644;2023-07-02T03:44:54;20.60;99.90
45008;DHT22;30743;52.008;5.644;2023-07-02T03:47:20;20.60;99.90
45008;DHT22;30743;52.008;5.644;2023-07-02T03:49:46;20.50;99.90
45008;DHT22;30743;52.008;5.644;2023-07-02T03:52:11;20.50;99.90
45008;DHT22;30743;52.008;5.644;2023-07-02T03:54:37;20.60;99.90
45008;DHT22;30743;52.008;5.644;2023-07-02T03:57:02;20.60;99.90
45008;DHT22;30743;52.008;5.644;2023-07-02T03:59:28;20.50;99.90
45008;DHT22;30743;52.008;5.644;2023-07-02T04:01:53;20.60;99.90
45008;DHT22;30743;52.008;5.644;2023-07-02T04:04:19;20.50;99.90
45008;DHT22;30743;52.008;5.644;2023-07-02T04:06:45;20.60;99.90
45008;DHT22;30743;52.008;5.644;2023-07-02T04:09:11;20.50;99.90
45008;DHT22;30743;52.008;5.644;2023-07-02T04:11:36;20.50;99.90
45008;DHT22;30743;52.008;5.644;2023-07-02T04:14:01;20.60;99.90
45008;DHT22;30743;52.008;5.644;2023-07-02T04:16:27;20.50;99.90
45008;DHT22;30743;52.008;5.644;2023-07-02T04:18:53;20.50;99.90
45008;DHT22;30743;52.008;5.644;2023-07-02T04:21:18;20.50;99.90
45008;DHT22;30743;52.008;5.644;2023-07-02T04:23:44;20.50;99.90
45008;DHT22;30743;52.008;5.644;2023-07-02T04:26:09;20.50;99.90
45008;DHT22;30743;52.008;5.644;2023-07-02T04:28:35;20.60;99.90
45008;DHT22;30743;52.008;5.644;2023-07-02T04:31:00;20.60;99.90
45008;DHT22;30743;52.008;5.644;2023-07-02T04:33:26;20.60;99.90
45008;DHT22;30743;52.008;5.644;2023-07-02T04:36:04;20.50;99.90
45008;DHT22;30743;52.008;5.644;2023-07-02T04:38:30;20.50;99.90
45008;DHT22;30743;52.008;5.644;2023-07-02T04:40:55;20.50;99.90
45008;DHT22;30743;52.008;5.644;2023-07-02T04:43:27;20.50;99.90
45008;DHT22;30743;52.008;5.644;2023-07-02T04:45:55;20.50;99.90
45008;DHT22;30743;52.008;5.644;2023-07-02T04:48:20;20.50;99.90
45008;DHT22;30743;52.008;5.644;2023-07-02T04:50:46;20.50;99.90
45008;DHT22;30743;52.008;5.644;2023-07-02T04:53:11;21.30;99.90
45008;DHT22;30743;52.008;5.644;2023-07-02T04:55:37;20.60;99.90
45008;DHT22;30743;52.008;5.644;2023-07-02T04:58:02;20.50;99.90
45008;DHT22;30743;52.008;5.644;2023-07-02T05:00:28;20.50;99.90
45008;DHT22;30743;52.008;5.644;2023-07-02T05:02:53;20.60;99.90
45008;DHT22;30743;52.008;5.644;2023-07-02T05:05:19;20.60;99.90
45008;DHT22;30743;52.008;5.644;2023-07-02T05:07:44;20.50;99.90
45008;DHT22;30743;52.008;5.644;2023-07-02T05:10:10;20.50;99.90
45008;DHT22;30743;52.008;5.644;2023-07-02T05:12:35;20.60;99.90
45008;DHT22;30743;52.008;5.644;2023-07-02T05:15:01;20.50;99.90
45008;DHT22;30743;52.008;5.644;2023-07-02T05:17:26;20.50;99.90
45008;DHT22;30743;52.008;5.644;2023-07-02T05:19:52;20.50;99.90
45008;DHT22;30743;52.008;5.644;2023-07-02T05:22:18;20.60;99.90
45008;DHT22;30743;52.008;5.644;2023-07-02T05:24:44;20.80;99.90
45008;DHT22;30743;52.008;5.644;2023-07-02T05:27:10;20.90;99.90
45008;DHT22;30743;52.008;5.644;2023-07-02T05:29:35;20.90;99.90
45008;DHT22;30743;52.008;5.644;2023-07-02T05:32:00;21.00;99.90
45008;DHT22;30743;52.008;5.644;2023-07-02T05:34:26;21.10;99.90
45008;DHT22;30743;52.008;5.644;2023-07-02T05:36:51;21.10;99.90
45008;DHT22;30743;52.008;5.644;2023-07-02T05:39:17;21.10;99.90
45008;DHT22;30743;52.008;5.644;2023-07-02T05:41:42;21.00;99.90
45008;DHT22;30743;52.008;5.644;2023-07-02T05:44:08;21.10;99.90
45008;DHT22;30743;52.008;5.644;2023-07-02T05:46:33;21.10;99.90
45008;DHT22;30743;52.008;5.644;2023-07-02T05:48:59;21.00;99.90
45008;DHT22;30743;52.008;5.644;2023-07-02T05:51:25;21.00;99.90
45008;DHT22;30743;52.008;5.644;2023-07-02T05:53:51;21.20;99.90
45008;DHT22;30743;52.008;5.644;2023-07-02T05:56:17;21.30;99.90
45008;DHT22;30743;52.008;5.644;2023-07-02T05:58:43;21.30;99.90
45008;DHT22;30743;52.008;5.644;2023-07-02T06:01:09;21.30;99.90
45008;DHT22;30743;52.008;5.644;2023-07-02T06:03:34;21.40;99.90
45008;DHT22;30743;52.008;5.644;2023-07-02T06:06:00;21.30;99.90
45008;DHT22;30743;52.008;5.644;2023-07-02T06:08:25;21.20;99.90
45008;DHT22;30743;52.008;5.644;2023-07-02T06:10:51;21.30;99.90
45008;DHT22;30743;52.008;5.644;2023-07-02T06:13:17;21.50;99.90
45008;DHT22;30743;52.008;5.644;2023-07-02T06:15:43;21.60;99.90
45008;DHT22;30743;52.008;5.644;2023-07-02T06:18:08;21.40;99.90
45008;DHT22;30743;52.008;5.644;2023-07-02T06:20:34;21.50;99.90
45008;DHT22;30743;52.008;5.644;2023-07-02T06:22:59;21.50;99.90
45008;DHT22;30743;52.008;5.644;2023-07-02T06:25:25;21.50;99.90
45008;DHT22;30743;52.008;5.644;2023-07-02T06:27:51;21.70;99.90
45008;DHT22;30743;52.008;5.644;2023-07-02T06:30:19;21.90;99.90
45008;DHT22;30743;52.008;5.644;2023-07-02T06:32:44;21.30;99.90
45008;DHT22;30743;52.008;5.644;2023-07-02T06:35:10;21.90;99.90
45008;DHT22;30743;52.008;5.644;2023-07-02T06:37:36;21.70;99.90
45008;DHT22;30743;52.008;5.644;2023-07-02T06:40:01;21.80;99.90
45008;DHT22;30743;52.008;5.644;2023-07-02T06:42:27;21.60;99.90
45008;DHT22;30743;52.008;5.644;2023-07-02T06:44:52;21.70;99.90
45008;DHT22;30743;52.008;5.644;2023-07-02T06:47:18;21.40;99.90
45008;DHT22;30743;52.008;5.644;2023-07-02T06:49:43;21.30;99.90
45008;DHT22;30743;52.008;5.644;2023-07-02T06:52:09;21.10;99.90
45008;DHT22;30743;52.008;5.644;2023-07-02T06:54:35;21.50;99.90
45008;DHT22;30743;52.008;5.644;2023-07-02T06:57:00;21.60;99.90
45008;DHT22;30743;52.008;5.644;2023-07-02T06:59:26;21.70;99.90
45008;DHT22;30743;52.008;5.644;2023-07-02T07:01:52;21.60;99.90
45008;DHT22;30743;52.008;5.644;2023-07-02T07:04:17;21.60;99.90
45008;DHT22;30743;52.008;5.644;2023-07-02T07:06:43;21.60;99.90
45008;DHT22;30743;52.008;5.644;2023-07-02T07:09:09;21.70;99.90
45008;DHT22;30743;52.008;5.644;2023-07-02T07:11:35;21.80;99.90
45008;DHT22;30743;52.008;5.644;2023-07-02T07:14:00;21.80;99.90
45008;DHT22;30743;52.008;5.644;2023-07-02T07:16:26;21.80;99.90
45008;DHT22;30743;52.008;5.644;2023-07-02T07:18:51;22.10;99.90
45008;DHT22;30743;52.008;5.644;2023-07-02T07:21:17;22.40;99.90
45008;DHT22;30743;52.008;5.644;2023-07-02T07:23:42;22.70;99.90
45008;DHT22;30743;52.008;5.644;2023-07-02T07:26:08;22.80;99.90
45008;DHT22;30743;52.008;5.644;2023-07-02T07:28:34;22.30;99.90
45008;DHT22;30743;52.008;5.644;2023-07-02T07:30:59;22.30;99.90
45008;DHT22;30743;52.008;5.644;2023-07-02T07:33:25;22.10;99.90
45008;DHT22;30743;52.008;5.644;2023-07-02T07:35:50;21.80;99.90
45008;DHT22;30743;52.008;5.644;2023-07-02T07:38:16;21.80;99.90
45008;DHT22;30743;52.008;5.644;2023-07-02T07:40:45;21.90;99.90
45008;DHT22;30743;52.008;5.644;2023-07-02T07:43:10;22.00;99.90
45008;DHT22;30743;52.008;5.644;2023-07-02T07:45:36;22.30;99.90
45008;DHT22;30743;52.008;5.644;2023-07-02T07:48:03;22.30;99.90
45008;DHT22;30743;52.008;5.644;2023-07-02T07:50:29;22.70;99.90
45008;DHT22;30743;52.008;5.644;2023-07-02T07:52:54;23.10;99.90
45008;DHT22;30743;52.008;5.644;2023-07-02T07:55:20;23.20;99.90
45008;DHT22;30743;52.008;5.644;2023-07-02T07:57:45;23.40;99.90
45008;DHT22;30743;52.008;5.644;2023-07-02T08:00:11;23.50;99.90
45008;DHT22;30743;52.008;5.644;2023-07-02T08:02:37;23.30;99.90
45008;DHT22;30743;52.008;5.644;2023-07-02T08:05:03;23.00;99.90
45008;DHT22;30743;52.008;5.644;2023-07-02T08:07:31;22.80;99.90
45008;DHT22;30743;52.008;5.644;2023-07-02T08:09:57;22.60;99.90
45008;DHT22;30743;52.008;5.644;2023-07-02T08:12:23;22.90;99.90
45008;DHT22;30743;52.008;5.644;2023-07-02T08:14:49;23.10;99.90
45008;DHT22;30743;52.008;5.644;2023-07-02T08:17:14;22.90;99.90
45008;DHT22;30743;52.008;5.644;2023-07-02T08:19:40;23.10;99.90
45008;DHT22;30743;52.008;5.644;2023-07-02T08:22:05;23.30;99.90
45008;DHT22;30743;52.008;5.644;2023-07-02T08:24:31;23.20;99.90
45008;DHT22;30743;52.008;5.644;2023-07-02T08:26:58;23.20;99.90
45008;DHT22;30743;52.008;5.644;2023-07-02T08:29:23;23.50;99.90
45008;DHT22;30743;52.008;5.644;2023-07-02T08:31:49;23.60;99.90
45008;DHT22;30743;52.008;5.644;2023-07-02T08:34:14;23.60;99.90
45008;DHT22;30743;52.008;5.644;2023-07-02T08:36:40;23.70;99.90
45008;DHT22;30743;52.008;5.644;2023-07-02T08:39:05;24.00;99.90
45008;DHT22;30743;52.008;5.644;2023-07-02T08:41:41;23.80;99.90
45008;DHT22;30743;52.008;5.644;2023-07-02T08:44:08;23.70;99.90
45008;DHT22;30743;52.008;5.644;2023-07-02T08:46:35;23.60;99.90
45008;DHT22;30743;52.008;5.644;2023-07-02T08:49:00;23.80;99.90
45008;DHT22;30743;52.008;5.644;2023-07-02T08:51:26;23.90;99.80
45008;DHT22;30743;52.008;5.644;2023-07-02T08:53:51;23.80;99.70
45008;DHT22;30743;52.008;5.644;2023-07-02T08:56:17;23.90;99.80
45008;DHT22;30743;52.008;5.644;2023-07-02T08:58:42;23.80;99.20
45008;DHT22;30743;52.008;5.644;2023-07-02T09:01:09;23.80;99.70
45008;DHT22;30743;52.008;5.644;2023-07-02T09:03:36;24.10;99.40
45008;DHT22;30743;52.008;5.644;2023-07-02T09:06:06;24.30;99.20
45008;DHT22;30743;52.008;5.644;2023-07-02T09:08:32;24.50;99.90
45008;DHT22;30743;52.008;5.644;2023-07-02T09:13:49;24.50;98.00
45008;DHT22;30743;52.008;5.644;2023-07-02T09:16:29;24.10;96.70
45008;DHT22;30743;52.008;5.644;2023-07-02T09:19:06;23.70;97.10
45008;DHT22;30743;52.008;5.644;2023-07-02T09:21:48;23.60;98.60
45008;DHT22;30743;52.008;5.644;2023-07-02T09:24:19;23.50;97.50
45008;DHT22;30743;52.008;5.644;2023-07-02T09:26:46;23.50;95.90
45008;DHT22;30743;52.008;5.644;2023-07-02T09:29:18;23.30;96.00
45008;DHT22;30743;52.008;5.644;2023-07-02T09:31:45;23.30;96.60
45008;DHT22;30743;52.008;5.644;2023-07-02T09:34:11;23.40;96.10
45008;DHT22;30743;52.008;5.644;2023-07-02T09:36:37;23.40;95.90
45008;DHT22;30743;52.008;5.644;2023-07-02T09:39:19;23.50;95.70
45008;DHT22;30743;52.008;5.644;2023-07-02T09:41:45;23.70;94.50
45008;DHT22;30743;52.008;5.644;2023-07-02T09:44:13;23.90;94.50
45008;DHT22;30743;52.008;5.644;2023-07-02T09:46:46;24.30;96.30
45008;DHT22;30743;52.008;5.644;2023-07-02T09:49:17;24.20;94.80
45008;DHT22;30743;52.008;5.644;2023-07-02T09:51:43;24.30;95.60
45008;DHT22;30743;52.008;5.644;2023-07-02T09:54:09;24.60;93.80
45008;DHT22;30743;52.008;5.644;2023-07-02T09:56:35;24.60;94.40
45008;DHT22;30743;52.008;5.644;2023-07-02T09:59:01;24.30;93.30
45008;DHT22;30743;52.008;5.644;2023-07-02T10:01:26;24.40;93.20
45008;DHT22;30743;52.008;5.644;2023-07-02T10:03:52;24.70;93.80
45008;DHT22;30743;52.008;5.644;2023-07-02T10:06:17;25.10;94.50
45008;DHT22;30743;52.008;5.644;2023-07-02T10:08:56;25.20;92.30
45008;DHT22;30743;52.008;5.644;2023-07-02T10:11:33;25.30;92.40
45008;DHT22;30743;52.008;5.644;2023-07-02T10:13:59;25.40;92.00
45008;DHT22;30743;52.008;5.644;2023-07-02T10:16:25;25.40;91.80
45008;DHT22;30743;52.008;5.644;2023-07-02T10:18:53;25.30;91.40
45008;DHT22;30743;52.008;5.644;2023-07-02T10:21:19;25.50;91.10
45008;DHT22;30743;52.008;5.644;2023-07-02T10:23:44;25.30;89.90
45008;DHT22;30743;52.008;5.644;2023-07-02T10:26:17;25.40;92.10
45008;DHT22;30743;52.008;5.644;2023-07-02T10:28:56;25.20;91.80
45008;DHT22;30743;52.008;5.644;2023-07-02T10:31:22;25.30;91.30
45008;DHT22;30743;52.008;5.644;2023-07-02T10:33:47;25.60;91.40
45008;DHT22;30743;52.008;5.644;2023-07-02T10:36:20;25.80;90.10
45008;DHT22;30743;52.008;5.644;2023-07-02T10:38:47;25.70;88.00
45008;DHT22;30743;52.008;5.644;2023-07-02T10:41:22;26.00;90.60
45008;DHT22;30743;52.008;5.644;2023-07-02T10:43:47;26.30;92.10
45008;DHT22;30743;52.008;5.644;2023-07-02T10:46:19;26.40;89.60
45008;DHT22;30743;52.008;5.644;2023-07-02T10:48:55;26.40;87.70
45008;DHT22;30743;52.008;5.644;2023-07-02T10:51:21;26.50;90.10
45008;DHT22;30743;52.008;5.644;2023-07-02T10:53:56;26.40;88.80
45008;DHT22;30743;52.008;5.644;2023-07-02T10:56:22;25.80;86.30
45008;DHT22;30743;52.008;5.644;2023-07-02T10:58:48;25.50;87.60
45008;DHT22;30743;52.008;5.644;2023-07-02T11:01:22;25.30;88.80
45008;DHT22;30743;52.008;5.644;2023-07-02T11:03:55;25.10;86.90
45008;DHT22;30743;52.008;5.644;2023-07-02T11:06:21;25.10;87.40
45008;DHT22;30743;52.008;5.644;2023-07-02T11:08:47;25.20;89.30
45008;DHT22;30743;52.008;5.644;2023-07-02T11:11:12;25.50;90.00
45008;DHT22;30743;52.008;5.644;2023-07-02T11:13:45;25.50;88.20
45008;DHT22;30743;52.008;5.644;2023-07-02T11:16:25;25.70;90.00
45008;DHT22;30743;52.008;5.644;2023-07-02T11:18:53;25.90;88.90
45008;DHT22;30743;52.008;5.644;2023-07-02T11:21:18;25.90;88.20
45008;DHT22;30743;52.008;5.644;2023-07-02T11:23:44;25.90;90.20
45008;DHT22;30743;52.008;5.644;2023-07-02T11:26:09;25.50;84.90
45008;DHT22;30743;52.008;5.644;2023-07-02T11:28:35;25.60;87.70
45008;DHT22;30743;52.008;5.644;2023-07-02T11:31:01;26.00;90.80
45008;DHT22;30743;52.008;5.644;2023-07-02T11:35:59;26.70;84.80
45008;DHT22;30743;52.008;5.644;2023-07-02T11:38:25;26.80;83.40
45008;DHT22;30743;52.008;5.644;2023-07-02T11:40:50;27.00;85.90
45008;DHT22;30743;52.008;5.644;2023-07-02T11:43:16;27.20;86.00
45008;DHT22;30743;52.008;5.644;2023-07-02T11:45:41;27.30;84.90
45008;DHT22;30743;52.008;5.644;2023-07-02T11:48:07;27.30;83.50
45008;DHT22;30743;52.008;5.644;2023-07-02T11:50:32;27.10;81.60
45008;DHT22;30743;52.008;5.644;2023-07-02T11:52:58;27.30;85.80
45008;DHT22;30743;52.008;5.644;2023-07-02T11:55:24;27.20;87.10
45008;DHT22;30743;52.008;5.644;2023-07-02T11:57:49;27.20;87.00
45008;DHT22;30743;52.008;5.644;2023-07-02T12:00:15;27.50;84.00
45008;DHT22;30743;52.008;5.644;2023-07-02T12:02:40;27.50;84.70
45008;DHT22;30743;52.008;5.644;2023-07-02T12:05:06;27.60;85.20
45008;DHT22;30743;52.008;5.644;2023-07-02T12:07:33;27.60;85.40
45008;DHT22;30743;52.008;5.644;2023-07-02T12:09:58;27.90;88.20
45008;DHT22;30743;52.008;5.644;2023-07-02T12:12:24;28.00;84.40
45008;DHT22;30743;52.008;5.644;2023-07-02T12:14:49;28.20;82.50
45008;DHT22;30743;52.008;5.644;2023-07-02T12:17:15;28.10;80.80
45008;DHT22;30743;52.008;5.644;2023-07-02T12:19:40;27.60;80.60
45008;DHT22;30743;52.008;5.644;2023-07-02T12:22:06;27.30;81.80
45008;DHT22;30743;52.008;5.644;2023-07-02T12:24:32;27.40;85.00
45008;DHT22;30743;52.008;5.644;2023-07-02T12:26:57;26.80;80.20
45008;DHT22;30743;52.008;5.644;2023-07-02T12:29:23;26.40;79.40
45008;DHT22;30743;52.008;5.644;2023-07-02T12:31:48;26.60;84.10
45008;DHT22;30743;52.008;5.644;2023-07-02T12:34:14;26.70;83.00
45008;DHT22;30743;52.008;5.644;2023-07-02T12:36:40;27.00;84.00
45008;DHT22;30743;52.008;5.644;2023-07-02T12:39:06;27.20;82.10
45008;DHT22;30743;52.008;5.644;2023-07-02T12:41:32;27.00;81.10
45008;DHT22;30743;52.008;5.644;2023-07-02T12:43:58;27.00;81.00
45008;DHT22;30743;52.008;5.644;2023-07-02T12:46:24;26.80;80.80
45008;DHT22;30743;52.008;5.644;2023-07-02T12:48:49;26.40;81.80
45008;DHT22;30743;52.008;5.644;2023-07-02T12:51:15;26.70;82.80
45008;DHT22;30743;52.008;5.644;2023-07-02T12:53:40;26.70;82.40
45008;DHT22;30743;52.008;5.644;2023-07-02T12:56:06;27.00;82.10
45008;DHT22;30743;52.008;5.644;2023-07-02T12:58:31;27.20;83.90
45008;DHT22;30743;52.008;5.644;2023-07-02T13:00:57;27.00;80.80
45008;DHT22;30743;52.008;5.644;2023-07-02T13:03:22;26.90;82.00
45008;DHT22;30743;52.008;5.644;2023-07-02T13:05:51;27.20;86.30
45008;DHT22;30743;52.008;5.644;2023-07-02T13:08:16;27.10;83.70
45008;DHT22;30743;52.008;5.644;2023-07-02T13:10:42;27.00;82.00
45008;DHT22;30743;52.008;5.644;2023-07-02T13:13:08;26.80;82.00
45008;DHT22;30743;52.008;5.644;2023-07-02T13:15:34;26.40;82.30
45008;DHT22;30743;52.008;5.644;2023-07-02T13:18:03;26.30;83.70
45008;DHT22;30743;52.008;5.644;2023-07-02T13:20:29;26.10;83.90
45008;DHT22;30743;52.008;5.644;2023-07-02T13:22:54;26.20;84.80
45008;DHT22;30743;52.008;5.644;2023-07-02T13:25:20;26.20;84.50
45008;DHT22;30743;52.008;5.644;2023-07-02T13:27:45;26.30;84.40
45008;DHT22;30743;52.008;5.644;2023-07-02T13:30:11;25.80;83.00
45008;DHT22;30743;52.008;5.644;2023-07-02T13:32:36;25.90;85.40
45008;DHT22;30743;52.008;5.644;2023-07-02T13:35:02;26.00;86.90
45008;DHT22;30743;52.008;5.644;2023-07-02T13:37:28;26.00;85.00
45008;DHT22;30743;52.008;5.644;2023-07-02T13:39:53;26.00;85.70
45008;DHT22;30743;52.008;5.644;2023-07-02T13:42:19;25.80;85.30
45008;DHT22;30743;52.008;5.644;2023-07-02T13:44:45;25.90;85.80
45008;DHT22;30743;52.008;5.644;2023-07-02T13:47:11;26.00;87.30
45008;DHT22;30743;52.008;5.644;2023-07-02T13:49:36;26.30;87.90
45008;DHT22;30743;52.008;5.644;2023-07-02T13:52:02;26.50;85.50
45008;DHT22;30743;52.008;5.644;2023-07-02T13:54:28;26.60;86.20
45008;DHT22;30743;52.008;5.644;2023-07-02T13:56:54;26.70;84.90
45008;DHT22;30743;52.008;5.644;2023-07-02T13:59:20;26.50;84.00
45008;DHT22;30743;52.008;5.644;2023-07-02T14:01:46;26.30;83.70
45008;DHT22;30743;52.008;5.644;2023-07-02T14:04:13;26.40;85.70
45008;DHT22;30743;52.008;5.644;2023-07-02T14:06:39;26.50;86.00
45008;DHT22;30743;52.008;5.644;2023-07-02T14:09:05;26.40;84.80
45008;DHT22;30743;52.008;5.644;2023-07-02T14:11:32;26.50;85.70
45008;DHT22;30743;52.008;5.644;2023-07-02T14:13:58;26.40;85.30
45008;DHT22;30743;52.008;5.644;2023-07-02T14:16:24;26.40;86.10
45008;DHT22;30743;52.008;5.644;2023-07-02T14:18:50;26.40;86.00
45008;DHT22;30743;52.008;5.644;2023-07-02T14:21:16;26.50;86.50
45008;DHT22;30743;52.008;5.644;2023-07-02T14:23:43;26.40;83.20
45008;DHT22;30743;52.008;5.644;2023-07-02T14:26:08;26.40;83.80
45008;DHT22;30743;52.008;5.644;2023-07-02T14:28:34;26.30;83.50
45008;DHT22;30743;52.008;5.644;2023-07-02T14:31:04;26.30;84.10
45008;DHT22;30743;52.008;5.644;2023-07-02T14:33:31;26.40;84.60
45008;DHT22;30743;52.008;5.644;2023-07-02T14:35:58;26.50;84.40
45008;DHT22;30743;52.008;5.644;2023-07-02T14:38:24;26.40;85.30
45008;DHT22;30743;52.008;5.644;2023-07-02T14:40:50;26.40;82.50
45008;DHT22;30743;52.008;5.644;2023-07-02T14:43:16;26.20;81.30
45008;DHT22;30743;52.008;5.644;2023-07-02T14:45:50;26.00;81.30
45008;DHT22;30743;52.008;5.644;2023-07-02T14:48:17;25.90;81.80
45008;DHT22;30743;52.008;5.644;2023-07-02T14:50:53;26.10;83.50
45008;DHT22;30743;52.008;5.644;2023-07-02T14:53:19;26.00;81.50
45008;DHT22;30743;52.008;5.644;2023-07-02T14:55:45;26.10;84.30
45008;DHT22;30743;52.008;5.644;2023-07-02T14:58:12;26.30;81.90
45008;DHT22;30743;52.008;5.644;2023-07-02T15:00:52;26.30;81.70
45008;DHT22;30743;52.008;5.644;2023-07-02T15:03:19;25.90;79.00
45008;DHT22;30743;52.008;5.644;2023-07-02T15:05:46;25.90;80.20
45008;DHT22;30743;52.008;5.644;2023-07-02T15:08:12;26.00;82.30
45008;DHT22;30743;52.008;5.644;2023-07-02T15:10:39;26.10;81.50
45008;DHT22;30743;52.008;5.644;2023-07-02T15:13:08;26.20;80.80
45008;DHT22;30743;52.008;5.644;2023-07-02T15:15:34;26.40;80.20
45008;DHT22;30743;52.008;5.644;2023-07-02T15:18:00;26.40;80.00
45008;DHT22;30743;52.008;5.644;2023-07-02T15:20:26;26.10;80.40
45008;DHT22;30743;52.008;5.644;2023-07-02T15:22:51;26.00;80.10
45008;DHT22;30743;52.008;5.644;2023-07-02T15:25:17;25.80;80.50
45008;DHT22;30743;52.008;5.644;2023-07-02T15:27:42;26.00;83.00
45008;DHT22;30743;52.008;5.644;2023-07-02T15:30:08;26.00;81.90
45008;DHT22;30743;52.008;5.644;2023-07-02T15:32:34;26.00;82.10